createdAt,value
2023-02-18T00:01:35.262Z,1.98
2023-02-18T00:04:03.095Z,2.60
2023-02-18T00:06:34.446Z,2.38
2023-02-18T00:09:04.254Z,2.30
2023-02-18T00:11:34.645Z,2.05
2023-02-18T00:14:04.743Z,2.22
2023-02-18T00:16:33.019Z,2.42
2023-02-18T00:19:07.256Z,2.10
2023-02-18T00:21:36.439Z,2.80
2023-02-18T00:24:05.794Z,2.78
2023-02-18T00:26:34.847Z,2.67
2023-02-18T00:29:03.478Z,2.63
2023-02-18T00:31:35.404Z,2.58
2023-02-18T00:34:05.187Z,3.03
2023-02-18T00:36:33.894Z,2.50
2023-02-18T00:39:04.480Z,2.10
2023-02-18T00:41:35.512Z,2.60
2023-02-18T00:44:03.783Z,2.42
2023-02-18T00:46:32.179Z,2.10
2023-02-18T00:49:02.188Z,2.25
2023-02-18T00:51:30.222Z,2.30
2023-02-18T00:53:58.936Z,2.00
2023-02-18T00:56:27.057Z,2.00
2023-02-18T00:58:55.435Z,2.17
2023-02-18T01:01:24.469Z,2.42
2023-02-18T01:03:52.276Z,2.40
2023-02-18T01:06:22.145Z,2.10
2023-02-18T01:08:50.436Z,2.20
2023-02-18T01:11:18.737Z,2.45
2023-02-18T01:13:46.957Z,2.40
2023-02-18T01:16:15.266Z,2.28
2023-02-18T01:18:43.073Z,2.17
2023-02-18T01:21:11.383Z,2.20
2023-02-18T01:23:41.135Z,2.03
2023-02-18T01:26:10.988Z,2.35
2023-02-18T01:28:40.825Z,2.20
2023-02-18T01:31:11.956Z,2.03
2023-02-18T01:33:40.105Z,2.00
2023-02-18T01:36:09.185Z,2.83
2023-02-18T01:38:37.308Z,1.85
2023-02-18T01:41:05.738Z,2.53
2023-02-18T01:43:34.477Z,2.15
2023-02-18T01:46:22.104Z,2.20
2023-02-18T01:49:00.599Z,2.75
2023-02-18T01:51:39.171Z,2.13
2023-02-18T01:54:18.592Z,2.50
2023-02-18T01:56:53.713Z,2.22
2023-02-18T01:59:39.757Z,1.85
2023-02-18T02:02:12.397Z,2.42
2023-02-18T02:04:40.875Z,2.05
2023-02-18T02:07:11.244Z,2.10
2023-02-18T02:09:41.275Z,2.45
2023-02-18T02:12:34.036Z,2.28
2023-02-18T02:15:29.852Z,2.45
2023-02-18T02:18:15.824Z,2.60
2023-02-18T02:21:01.878Z,2.45
2023-02-18T02:23:56.365Z,2.20
2023-02-18T02:27:01.734Z,2.30
2023-02-18T02:29:53.582Z,2.33
2023-02-18T02:32:59.876Z,2.35
2023-02-18T02:38:16.412Z,2.30
2023-02-18T02:41:25.508Z,2.20
2023-02-18T02:44:18.955Z,1.95
2023-02-18T02:46:51.975Z,2.33
2023-02-18T02:49:40.986Z,2.17
2023-02-18T02:52:09.483Z,2.33
2023-02-18T02:54:37.509Z,2.00
2023-02-18T02:57:10.502Z,2.50
2023-02-18T02:59:55.496Z,2.30
2023-02-18T03:02:30.378Z,2.45
2023-02-18T03:05:32.043Z,2.08
2023-02-18T03:07:59.915Z,2.42
2023-02-18T03:10:51.101Z,2.22
2023-02-18T03:13:24.936Z,2.40
2023-02-18T03:15:56.172Z,2.38
2023-02-18T03:18:43.816Z,3.00
2023-02-18T03:21:33.325Z,3.10
2023-02-18T03:24:08.374Z,1.80
2023-02-18T03:26:42.006Z,2.83
2023-02-18T03:31:40.783Z,2.28
2023-02-18T03:34:14.512Z,2.10
2023-02-18T03:36:45.017Z,2.58
2023-02-18T03:39:20.212Z,2.65
2023-02-18T03:44:17.319Z,2.70
2023-02-18T03:46:46.147Z,2.63
2023-02-18T03:49:15.446Z,2.28
2023-02-18T03:51:43.922Z,2.30
2023-02-18T03:54:14.342Z,2.53
2023-02-18T03:56:43.735Z,2.13
2023-02-18T03:59:13.050Z,2.22
2023-02-18T04:01:40.719Z,2.20
2023-02-18T04:04:09.226Z,2.45
2023-02-18T04:06:37.035Z,2.83
2023-02-18T04:09:08.992Z,2.60
2023-02-18T04:11:40.970Z,2.30
2023-02-18T04:14:09.323Z,2.38
2023-02-18T04:16:37.300Z,2.60
2023-02-18T04:19:05.372Z,2.45
2023-02-18T04:21:33.984Z,2.13
2023-02-18T04:24:02.114Z,2.58
2023-02-18T04:26:30.586Z,2.40
2023-02-18T04:28:58.703Z,2.65
2023-02-18T04:31:26.538Z,2.55
2023-02-18T04:33:54.502Z,2.10
2023-02-18T04:36:22.215Z,3.22
2023-02-18T04:38:50.306Z,2.72
2023-02-18T04:41:18.023Z,2.75
2023-02-18T04:43:46.016Z,2.38
2023-02-18T04:46:13.703Z,2.60
2023-02-18T04:48:41.845Z,2.72
2023-02-18T04:51:09.685Z,2.30
2023-02-18T04:53:37.720Z,2.40
2023-02-18T04:56:05.799Z,2.53
2023-02-18T04:58:33.962Z,1.95
2023-02-18T05:01:03.414Z,2.75
2023-02-18T05:03:31.800Z,2.10
2023-02-18T05:05:59.838Z,2.05
2023-02-18T05:08:27.833Z,2.30
2023-02-18T05:10:55.446Z,2.38
2023-02-18T05:13:23.560Z,2.05
2023-02-18T05:15:52.541Z,2.58
2023-02-18T05:18:20.432Z,2.28
2023-02-18T05:20:48.065Z,2.60
2023-02-18T05:23:16.105Z,3.20
2023-02-18T05:25:43.788Z,2.13
2023-02-18T05:28:11.743Z,3.00
2023-02-18T05:30:39.656Z,2.40
2023-02-18T05:33:07.630Z,2.75
2023-02-18T05:35:35.343Z,2.45
2023-02-18T05:38:03.390Z,2.20
2023-02-18T05:40:31.344Z,2.45
2023-02-18T05:42:59.279Z,2.17
2023-02-18T05:45:27.178Z,2.42
2023-02-18T05:47:55.129Z,2.60
2023-02-18T05:50:22.862Z,3.15
2023-02-18T05:52:50.739Z,2.28
2023-02-18T05:55:18.454Z,2.35
2023-02-18T05:57:46.458Z,2.85
2023-02-18T06:00:14.729Z,2.35
2023-02-18T06:02:43.055Z,2.58
2023-02-18T06:05:12.202Z,2.95
2023-02-18T06:07:40.138Z,2.42
2023-02-18T06:10:10.206Z,2.45
2023-02-18T06:12:38.190Z,2.42
2023-02-18T06:15:06.687Z,3.03
2023-02-18T06:17:34.644Z,2.65
2023-02-18T06:20:02.442Z,2.47
2023-02-18T06:22:30.376Z,2.30
2023-02-18T06:24:58.016Z,2.50
2023-02-18T06:27:25.896Z,2.70
2023-02-18T06:29:53.586Z,1.70
2023-02-18T06:32:21.781Z,2.17
2023-02-18T06:34:49.463Z,2.55
2023-02-18T06:37:17.504Z,2.88
2023-02-18T06:39:45.185Z,2.60
2023-02-18T06:42:13.073Z,3.00
2023-02-18T06:44:40.940Z,2.63
2023-02-18T06:47:08.958Z,2.90
2023-02-18T06:49:36.693Z,2.83
2023-02-18T06:52:05.021Z,2.90
2023-02-18T06:54:33.318Z,3.28
2023-02-18T06:57:01.451Z,3.30
2023-02-18T06:59:29.130Z,2.95
2023-02-18T07:01:57.025Z,2.50
2023-02-18T07:04:24.757Z,2.58
2023-02-18T07:06:52.739Z,2.92
2023-02-18T07:09:20.388Z,3.00
2023-02-18T07:11:48.572Z,2.97
2023-02-18T07:14:16.224Z,2.85
2023-02-18T07:16:44.215Z,2.92
2023-02-18T07:19:13.248Z,2.30
2023-02-18T07:21:42.931Z,3.30
2023-02-18T07:24:10.730Z,2.42
2023-02-18T07:26:38.836Z,5.38
2023-02-18T07:29:06.529Z,8.45
2023-02-18T07:31:34.554Z,13.75
2023-02-18T07:34:02.407Z,11.07
2023-02-18T07:36:30.309Z,3.53
2023-02-18T07:38:57.993Z,3.00
2023-02-18T07:41:26.583Z,3.72
2023-02-18T07:43:54.377Z,5.55
2023-02-18T07:46:22.312Z,3.70
2023-02-18T07:48:50.077Z,3.90
2023-02-18T07:51:18.107Z,6.03
2023-02-18T07:53:45.892Z,7.22
2023-02-18T07:56:13.864Z,4.45
2023-02-18T07:58:41.642Z,10.00
2023-02-18T08:01:14.905Z,6.82
2023-02-18T08:03:43.383Z,10.20
2023-02-18T08:06:25.254Z,5.25
2023-02-18T08:08:53.040Z,6.57
2023-02-18T08:11:21.107Z,4.93
2023-02-18T08:13:49.748Z,10.35
2023-02-18T08:16:19.369Z,7.10
2023-02-18T08:18:50.186Z,4.32
2023-02-18T08:21:20.621Z,7.32
2023-02-18T08:23:49.353Z,5.75
2023-02-18T08:26:18.231Z,4.50
2023-02-18T08:28:47.482Z,4.57
2023-02-18T08:31:30.140Z,6.05
2023-02-18T08:33:59.372Z,4.72
2023-02-18T08:36:28.345Z,4.90
2023-02-18T08:38:56.440Z,4.10
2023-02-18T08:41:25.528Z,3.17
2023-02-18T08:43:53.423Z,5.03
2023-02-18T08:46:31.518Z,3.55
2023-02-18T08:49:05.337Z,4.00
2023-02-18T08:51:33.872Z,3.15
2023-02-18T08:54:01.622Z,3.83
2023-02-18T08:56:30.011Z,2.95
2023-02-18T08:58:58.291Z,3.08
2023-02-18T09:01:26.607Z,2.85
2023-02-18T09:03:54.601Z,3.55
2023-02-18T09:06:22.960Z,3.00
2023-02-18T09:08:50.855Z,3.50
2023-02-18T09:11:19.895Z,4.22
2023-02-18T09:13:47.881Z,3.80
2023-02-18T09:16:18.613Z,2.72
2023-02-18T09:18:47.977Z,2.60
2023-02-18T09:21:19.122Z,2.63
2023-02-18T09:23:47.488Z,2.97
2023-02-18T09:26:18.477Z,3.20
2023-02-18T09:28:46.215Z,3.00
2023-02-18T09:31:17.556Z,2.50
2023-02-18T09:33:48.782Z,2.50
2023-02-18T09:36:17.424Z,2.75
2023-02-18T09:38:45.467Z,2.58
2023-02-18T09:41:31.338Z,3.30
2023-02-18T09:44:13.354Z,3.03
2023-02-18T09:46:49.707Z,2.65
2023-02-18T09:49:27.308Z,2.35
2023-02-18T09:51:57.349Z,2.60
2023-02-18T09:54:27.119Z,3.10
2023-02-18T09:56:55.646Z,3.33
2023-02-18T09:59:26.699Z,2.83
2023-02-18T10:01:55.479Z,2.90
2023-02-18T10:04:32.235Z,2.80
2023-02-18T10:07:03.747Z,2.95
2023-02-18T10:09:37.219Z,3.50
2023-02-18T10:12:21.538Z,3.67
2023-02-18T10:14:54.979Z,4.38
2023-02-18T10:17:26.923Z,6.75
2023-02-18T10:19:56.927Z,4.85
2023-02-18T10:22:27.111Z,6.25
2023-02-18T10:25:00.863Z,4.78
2023-02-18T10:27:34.009Z,5.32
2023-02-18T10:30:34.025Z,4.63
2023-02-18T10:35:48.041Z,4.68
2023-02-18T10:38:45.314Z,4.32
2023-02-18T10:41:25.301Z,5.20
2023-02-18T10:44:27.463Z,6.25
2023-02-18T10:47:17.497Z,5.65
2023-02-18T10:49:56.885Z,4.97
2023-02-18T10:52:29.885Z,5.68
2023-02-18T10:55:09.452Z,3.47
2023-02-18T10:57:54.085Z,4.28
2023-02-18T11:00:27.272Z,4.25
2023-02-18T11:03:24.506Z,4.20
2023-02-18T11:05:57.124Z,3.88
2023-02-18T11:08:36.866Z,3.15
2023-02-18T11:11:25.689Z,4.32
2023-02-18T11:13:55.833Z,2.92
2023-02-18T11:16:35.920Z,3.00
2023-02-18T11:19:04.568Z,3.00
2023-02-18T11:21:37.755Z,3.15
2023-02-18T11:24:15.892Z,3.45
2023-02-18T11:26:44.835Z,3.00
2023-02-18T11:29:26.073Z,2.95
2023-02-18T11:31:57.051Z,3.08
2023-02-18T11:34:29.168Z,3.60
2023-02-18T11:37:26.889Z,3.60
2023-02-18T11:39:56.818Z,3.40
2023-02-18T11:42:27.294Z,3.22
2023-02-18T11:45:00.099Z,2.97
2023-02-18T11:47:38.104Z,3.17
2023-02-18T11:50:09.010Z,3.10
2023-02-18T11:52:46.651Z,3.45
2023-02-18T11:55:53.637Z,3.72
2023-02-18T11:58:22.054Z,3.60
2023-02-18T12:00:52.146Z,3.20
2023-02-18T12:03:42.623Z,3.58
2023-02-18T12:06:38.769Z,3.85
2023-02-18T12:09:20.993Z,3.83
2023-02-18T12:12:25.241Z,4.15
2023-02-18T12:14:56.420Z,3.70
2023-02-18T12:17:50.705Z,3.42
2023-02-18T12:20:56.832Z,4.00
2023-02-18T12:24:07.199Z,3.42
2023-02-18T12:26:54.689Z,3.13
2023-02-18T12:29:46.343Z,3.25
2023-02-18T12:32:57.797Z,3.38
2023-02-18T12:35:44.000Z,3.95
2023-02-18T12:38:38.946Z,3.47
2023-02-18T12:41:30.078Z,3.40
2023-02-18T12:44:08.926Z,3.92
2023-02-18T12:46:51.032Z,3.63
2023-02-18T12:49:52.463Z,3.28
2023-02-18T12:52:26.788Z,4.05
2023-02-18T12:55:19.258Z,3.20
2023-02-18T12:58:11.297Z,4.07
2023-02-18T13:00:58.986Z,3.40
2023-02-18T13:03:58.234Z,3.05
2023-02-18T13:06:53.612Z,3.90
2023-02-18T13:09:47.641Z,3.05
2023-02-18T13:12:51.654Z,3.28
2023-02-18T13:15:48.436Z,3.15
2023-02-18T13:18:42.324Z,2.95
2023-02-18T13:21:17.302Z,3.20
2023-02-18T13:24:20.014Z,3.13
2023-02-18T13:26:51.601Z,7.75
2023-02-18T13:29:26.883Z,8.15
2023-02-18T13:32:18.476Z,6.78
2023-02-18T13:34:55.547Z,3.67
2023-02-18T13:37:31.184Z,3.33
2023-02-18T13:40:00.906Z,3.78
2023-02-18T13:42:36.878Z,3.30
2023-02-18T13:45:05.995Z,4.05
2023-02-18T13:47:39.924Z,4.43
2023-02-18T13:50:23.158Z,3.35
2023-02-18T13:52:57.395Z,3.70
2023-02-18T13:55:55.674Z,3.67
2023-02-18T13:58:38.773Z,4.38
2023-02-18T14:01:19.698Z,3.97
2023-02-18T14:03:47.288Z,3.65
2023-02-18T14:06:20.960Z,3.58
2023-02-18T14:08:49.899Z,3.65
2023-02-18T14:11:18.110Z,3.97
2023-02-18T14:13:59.834Z,3.60
2023-02-18T14:16:47.804Z,2.95
2023-02-18T14:19:41.702Z,4.00
2023-02-18T14:22:43.833Z,4.00
2023-02-18T14:27:44.046Z,3.22
2023-02-18T14:30:21.496Z,3.38
2023-02-18T14:32:52.886Z,4.20
2023-02-18T14:35:48.190Z,3.58
2023-02-18T14:38:37.003Z,3.88
2023-02-18T14:41:31.206Z,2.92
2023-02-18T14:44:14.830Z,3.90
2023-02-18T14:46:52.346Z,2.97
2023-02-18T14:49:45.910Z,3.72
2023-02-18T14:52:36.553Z,4.13
2023-02-18T14:55:07.537Z,3.85
2023-02-18T14:57:57.862Z,4.22
2023-02-18T15:00:32.350Z,3.90
2023-02-18T15:03:02.259Z,4.95
2023-02-18T15:05:32.928Z,4.88
2023-02-18T15:08:10.804Z,4.25
2023-02-18T15:10:48.519Z,4.10
2023-02-18T15:13:26.997Z,3.72
2023-02-18T15:16:05.110Z,4.28
2023-02-18T15:18:35.798Z,5.78
2023-02-18T15:21:05.952Z,4.50
2023-02-18T15:23:40.125Z,4.50
2023-02-18T15:26:13.344Z,3.17
2023-02-18T15:29:02.181Z,3.70
2023-02-18T15:31:35.733Z,4.00
2023-02-18T15:34:19.059Z,3.65
2023-02-18T15:36:52.215Z,3.38
2023-02-18T15:39:20.196Z,3.15
2023-02-18T15:41:53.120Z,2.58
2023-02-18T15:44:25.497Z,2.95
2023-02-18T15:46:53.612Z,2.70
2023-02-18T15:49:24.381Z,2.72
2023-02-18T15:51:58.162Z,2.50
2023-02-18T15:54:26.636Z,3.00
2023-02-18T15:56:57.028Z,3.22
2023-02-18T15:59:36.213Z,3.40
2023-02-18T16:02:21.436Z,3.67
2023-02-18T16:05:02.324Z,3.03
2023-02-18T16:07:49.457Z,3.50
2023-02-18T16:10:24.557Z,3.20
2023-02-18T16:13:01.635Z,3.28
2023-02-18T16:15:39.820Z,3.10
2023-02-18T16:18:19.805Z,3.00
2023-02-18T16:20:56.234Z,2.90
2023-02-18T16:23:35.272Z,3.00
2023-02-18T16:26:26.935Z,3.20
2023-02-18T16:28:55.532Z,3.60
2023-02-18T16:31:23.770Z,3.30
2023-02-18T16:33:51.521Z,3.08
2023-02-18T16:36:21.370Z,3.17
2023-02-18T16:38:49.213Z,4.30
2023-02-18T16:41:18.752Z,3.42
2023-02-18T16:43:46.507Z,3.75
2023-02-18T16:46:21.431Z,3.95
2023-02-18T16:48:57.457Z,3.80
2023-02-18T16:51:31.822Z,3.47
2023-02-18T16:53:59.711Z,3.10
2023-02-18T16:56:32.276Z,3.25
2023-02-18T16:59:00.443Z,4.55
2023-02-18T17:01:31.613Z,3.67
2023-02-18T17:04:01.543Z,4.22
2023-02-18T17:06:30.092Z,4.07
2023-02-18T17:08:57.828Z,4.68
2023-02-18T17:11:31.864Z,6.18
2023-02-18T17:13:59.799Z,5.90
2023-02-18T17:16:28.942Z,5.70
2023-02-18T17:18:56.967Z,5.75
2023-02-18T17:21:26.208Z,6.50
2023-02-18T17:23:53.968Z,6.57
2023-02-18T17:26:27.088Z,10.10
2023-02-18T17:28:57.223Z,11.50
2023-02-18T17:31:28.734Z,11.35
2023-02-18T17:33:59.798Z,8.25
2023-02-18T17:36:27.889Z,8.20
2023-02-18T17:38:55.557Z,10.20
2023-02-18T17:41:23.508Z,8.80
2023-02-18T17:43:51.477Z,6.93
2023-02-18T17:46:20.367Z,8.73
2023-02-18T17:48:48.185Z,10.38
2023-02-18T17:51:25.053Z,11.65
2023-02-18T17:53:53.335Z,8.68
2023-02-18T17:56:21.911Z,9.50
2023-02-18T17:58:49.880Z,8.93
2023-02-18T18:01:18.788Z,7.68
2023-02-18T18:03:46.817Z,8.10
2023-02-18T18:06:20.415Z,7.93
2023-02-18T18:08:48.718Z,8.77
2023-02-18T18:11:25.264Z,8.95
2023-02-18T18:13:53.510Z,8.55
2023-02-18T18:16:22.114Z,8.02
2023-02-18T18:18:49.922Z,8.90
2023-02-18T18:21:20.705Z,9.15
2023-02-18T18:23:48.932Z,6.88
2023-02-18T18:26:17.409Z,9.25
2023-02-18T18:28:45.230Z,18.65
2023-02-18T18:31:16.267Z,8.45
2023-02-18T18:33:49.034Z,8.40
2023-02-18T18:36:18.678Z,7.53
2023-02-18T18:38:46.943Z,7.97
2023-02-18T18:41:17.810Z,8.85
2023-02-18T18:43:46.114Z,8.70
2023-02-18T18:46:14.179Z,7.82
2023-02-18T18:48:42.457Z,7.93
2023-02-18T18:51:21.536Z,7.78
2023-02-18T18:53:49.242Z,7.25
2023-02-18T18:56:17.279Z,7.72
2023-02-18T18:58:44.970Z,7.35
2023-02-18T19:01:23.162Z,7.40
2023-02-18T19:03:51.171Z,7.13
2023-02-18T19:06:19.334Z,7.90
2023-02-18T19:08:47.993Z,8.68
2023-02-18T19:11:16.995Z,9.02
2023-02-18T19:13:45.817Z,9.40
2023-02-18T19:16:26.579Z,9.00
2023-02-18T19:18:54.430Z,9.15
2023-02-18T19:21:22.331Z,9.57
2023-02-18T19:23:50.023Z,9.25
2023-02-18T19:26:18.143Z,7.95
2023-02-18T19:28:46.227Z,8.18
2023-02-18T19:31:14.800Z,8.25
2023-02-18T19:33:45.622Z,8.18
2023-02-18T19:36:14.902Z,8.27
2023-02-18T19:38:42.964Z,8.13
2023-02-18T19:41:13.246Z,8.60
2023-02-18T19:43:41.966Z,7.55
2023-02-18T19:46:11.890Z,8.07
2023-02-18T19:48:40.281Z,7.97
2023-02-18T19:51:08.909Z,8.00
2023-02-18T19:53:37.200Z,7.82
2023-02-18T19:56:08.351Z,6.95
2023-02-18T19:58:36.940Z,8.52
2023-02-18T20:01:10.633Z,7.53
2023-02-18T20:03:38.458Z,7.57
2023-02-18T20:06:06.718Z,8.10
2023-02-18T20:08:36.940Z,6.05
2023-02-18T20:11:04.961Z,6.95
2023-02-18T20:13:32.639Z,7.35
2023-02-18T20:16:00.547Z,7.18
2023-02-18T20:18:28.350Z,7.50
2023-02-18T20:20:56.408Z,7.07
2023-02-18T20:23:24.111Z,7.38
2023-02-18T20:25:52.105Z,7.35
2023-02-18T20:28:19.954Z,7.28
2023-02-18T20:30:47.986Z,8.68
2023-02-18T20:33:15.689Z,7.25
2023-02-18T20:35:43.580Z,8.07
2023-02-18T20:38:11.249Z,7.53
2023-02-18T20:40:39.253Z,8.55
2023-02-18T20:43:06.991Z,8.10
2023-02-18T20:45:34.890Z,9.32
2023-02-18T20:48:02.618Z,8.70
2023-02-18T20:50:30.526Z,7.93
2023-02-18T20:52:58.194Z,7.53
2023-02-18T20:55:26.208Z,8.90
2023-02-18T20:57:53.909Z,8.57
2023-02-18T21:00:22.587Z,9.63
2023-02-18T21:02:50.455Z,10.32
2023-02-18T21:05:19.682Z,10.00
2023-02-18T21:07:47.363Z,10.50
2023-02-18T21:10:15.390Z,9.70
2023-02-18T21:12:43.906Z,10.07
2023-02-18T21:15:11.973Z,10.10
2023-02-18T21:17:40.202Z,11.15
2023-02-18T21:20:08.734Z,10.30
2023-02-18T21:22:36.421Z,11.25
2023-02-18T21:25:04.803Z,10.40
2023-02-18T21:27:32.510Z,10.18
2023-02-18T21:30:00.921Z,10.25
2023-02-18T21:32:28.945Z,9.48
2023-02-18T21:34:56.961Z,8.80
2023-02-18T21:37:24.739Z,10.57
2023-02-18T21:39:52.662Z,9.40
2023-02-18T21:42:20.408Z,8.27
2023-02-18T21:44:48.496Z,7.38
2023-02-18T21:47:16.335Z,7.13
2023-02-18T21:49:44.416Z,6.75
2023-02-18T21:52:12.077Z,5.88
2023-02-18T21:54:44.388Z,6.68
2023-02-18T21:57:14.985Z,6.78
2023-02-18T21:59:43.380Z,6.50
2023-02-18T22:02:23.206Z,7.55
2023-02-18T22:04:51.987Z,8.20
2023-02-18T22:07:21.669Z,8.20
2023-02-18T22:09:50.780Z,7.85
2023-02-18T22:12:19.546Z,7.47
2023-02-18T22:14:48.060Z,7.18
2023-02-18T22:17:16.748Z,6.80
2023-02-18T22:19:46.216Z,6.93
2023-02-18T22:22:13.977Z,6.75
2023-02-18T22:24:42.323Z,7.00
2023-02-18T22:27:10.345Z,6.63
2023-02-18T22:29:38.582Z,7.10
2023-02-18T22:32:06.571Z,6.15
2023-02-18T22:34:34.644Z,6.53
2023-02-18T22:37:02.423Z,6.82
2023-02-18T22:39:30.527Z,7.15
2023-02-18T22:41:58.231Z,6.65
2023-02-18T22:44:27.384Z,6.13
2023-02-18T22:46:56.749Z,6.85
2023-02-18T22:49:25.347Z,6.60
2023-02-18T22:51:54.404Z,6.88
2023-02-18T22:54:22.483Z,6.68
2023-02-18T22:56:50.233Z,6.45
2023-02-18T22:59:19.501Z,6.80
2023-02-18T23:01:49.804Z,7.13
2023-02-18T23:04:19.810Z,6.78
2023-02-18T23:06:48.463Z,6.85
2023-02-18T23:09:25.932Z,6.75
2023-02-18T23:11:56.327Z,6.97
2023-02-18T23:14:25.838Z,5.95
2023-02-18T23:17:14.900Z,6.55
2023-02-18T23:19:46.026Z,6.10
2023-02-18T23:22:19.664Z,5.78
2023-02-18T23:27:16.803Z,5.80
2023-02-18T23:29:44.987Z,6.30
2023-02-18T23:32:12.909Z,6.53
2023-02-18T23:34:41.227Z,5.78
2023-02-18T23:37:10.121Z,6.30
2023-02-18T23:39:40.039Z,5.70
2023-02-18T23:42:08.334Z,6.03
2023-02-18T23:44:36.230Z,5.93
2023-02-18T23:47:04.024Z,5.57
2023-02-18T23:49:32.117Z,6.18
2023-02-18T23:51:59.850Z,6.57
2023-02-18T23:54:27.996Z,6.60
2023-02-18T23:56:55.661Z,7.15
2023-02-18T23:59:23.576Z,6.53
